Aviation Digital Data Service (ADDS)

Output produced by TAFs form (1855 UTC 13 December 2017)
found at http://aviationweather.gov/adds/tafs/
 
KMAF 131849Z 1319/1418 24010KT P6SM FEW250 
     TEMPO 1319/1321 25013G21KT 
     FM140600 01008KT P6SM SKC